createdAt,value
2023-03-31T00:00:02.817Z,8.10
2023-03-31T00:01:02.785Z,5.70
2023-03-31T00:02:02.790Z,6.80
2023-03-31T00:03:02.914Z,8.50
2023-03-31T00:04:02.929Z,6.90
2023-03-31T00:05:02.803Z,7.00
2023-03-31T00:06:02.835Z,6.90
2023-03-31T00:07:02.697Z,9.30
2023-03-31T00:08:02.701Z,6.60
2023-03-31T00:09:02.753Z,8.20
2023-03-31T00:10:16.814Z,6.70
2023-03-31T00:11:02.657Z,5.40
2023-03-31T00:12:02.662Z,6.00
2023-03-31T00:13:02.697Z,9.10
2023-03-31T00:14:02.609Z,5.80
2023-03-31T00:15:02.611Z,8.60
2023-03-31T00:16:02.715Z,8.20
2023-03-31T00:17:02.648Z,7.50
2023-03-31T00:18:02.658Z,8.20
2023-03-31T00:19:02.593Z,5.60
2023-03-31T00:20:02.542Z,7.20
2023-03-31T00:21:02.605Z,5.70
2023-03-31T00:22:02.581Z,5.90
2023-03-31T00:23:02.521Z,7.80
2023-03-31T00:24:02.486Z,8.10
2023-03-31T00:25:02.465Z,7.00
2023-03-31T00:26:02.518Z,9.00
2023-03-31T00:27:02.472Z,6.30
2023-03-31T00:28:02.448Z,6.90
2023-03-31T00:29:02.444Z,8.00
2023-03-31T00:30:02.399Z,14.30
2023-03-31T00:31:02.388Z,8.10
2023-03-31T00:32:02.392Z,6.80
2023-03-31T00:33:02.369Z,7.90
2023-03-31T00:34:02.416Z,6.70
2023-03-31T00:35:02.427Z,5.90
2023-03-31T00:36:02.522Z,6.90
2023-03-31T00:37:02.306Z,7.60
2023-03-31T00:38:02.342Z,7.80
2023-03-31T00:39:02.303Z,8.10
2023-03-31T00:40:02.290Z,8.20
2023-03-31T00:41:02.321Z,8.40
2023-03-31T00:42:02.242Z,7.70
2023-03-31T00:43:02.254Z,9.00
2023-03-31T00:44:02.259Z,7.30
2023-03-31T00:45:02.202Z,7.60
2023-03-31T00:46:02.236Z,4.80
2023-03-31T00:47:02.167Z,5.70
2023-03-31T00:48:02.191Z,6.20
2023-03-31T00:49:02.165Z,7.90
2023-03-31T00:50:02.170Z,8.50
2023-03-31T00:51:02.133Z,5.40
2023-03-31T00:52:02.116Z,8.50
2023-03-31T00:53:02.126Z,11.00
2023-03-31T00:54:02.220Z,4.90
2023-03-31T00:55:02.070Z,6.00
2023-03-31T00:56:02.058Z,4.70
2023-03-31T00:57:02.082Z,5.70
2023-03-31T00:58:02.160Z,5.20
2023-03-31T00:59:02.041Z,8.30
2023-03-31T01:00:01.994Z,6.00
2023-03-31T01:01:02.057Z,7.50
2023-03-31T01:02:01.976Z,10.10
2023-03-31T01:03:02.013Z,6.60
2023-03-31T01:04:02.075Z,5.00
2023-03-31T01:05:01.950Z,12.00
2023-03-31T01:06:01.921Z,5.30
2023-03-31T01:07:01.899Z,9.60
2023-03-31T01:08:01.928Z,8.80
2023-03-31T01:09:01.911Z,8.40
2023-03-31T01:10:01.864Z,9.80
2023-03-31T01:11:01.879Z,5.00
2023-03-31T01:12:01.845Z,7.40
2023-03-31T01:13:01.825Z,8.50
2023-03-31T01:14:01.873Z,6.90
2023-03-31T01:15:01.862Z,8.00
2023-03-31T01:16:01.790Z,9.30
2023-03-31T01:17:01.876Z,7.80
2023-03-31T01:18:01.820Z,6.70
2023-03-31T01:19:01.800Z,7.90
2023-03-31T01:20:01.736Z,7.40
2023-03-31T01:21:01.710Z,8.30
2023-03-31T01:22:01.733Z,5.40
2023-03-31T01:23:01.690Z,6.10
2023-03-31T01:24:01.702Z,4.70
2023-03-31T01:25:01.810Z,6.20
2023-03-31T01:26:01.670Z,6.50
2023-03-31T01:27:01.644Z,6.80
2023-03-31T01:28:01.647Z,6.30
2023-03-31T01:29:01.669Z,7.10
2023-03-31T01:30:01.593Z,5.40
2023-03-31T01:31:01.648Z,4.30
2023-03-31T01:32:01.624Z,5.70
2023-03-31T01:33:01.607Z,4.80
2023-03-31T01:34:01.548Z,7.30
2023-03-31T01:35:01.611Z,9.70
2023-03-31T01:36:01.594Z,4.60
2023-03-31T01:37:01.514Z,6.20
2023-03-31T01:38:01.558Z,6.10
2023-03-31T01:39:01.483Z,6.80
2023-03-31T01:40:01.489Z,6.80
2023-03-31T01:41:01.485Z,7.20
2023-03-31T01:42:01.442Z,8.70
2023-03-31T01:43:01.425Z,6.70
2023-03-31T01:44:01.455Z,5.70
2023-03-31T01:45:01.431Z,7.90
2023-03-31T01:46:01.420Z,6.80
2023-03-31T01:47:01.438Z,6.40
2023-03-31T01:48:01.400Z,8.50
2023-03-31T01:49:01.357Z,7.90
2023-03-31T01:50:01.374Z,9.20
2023-03-31T01:51:01.331Z,6.60
2023-03-31T01:52:01.325Z,9.60
2023-03-31T01:53:01.358Z,7.00
2023-03-31T01:54:01.286Z,12.10
2023-03-31T01:55:01.315Z,9.70
2023-03-31T01:56:01.312Z,7.10
2023-03-31T01:57:01.294Z,6.70
2023-03-31T01:58:01.238Z,7.70
2023-03-31T01:59:01.274Z,10.30
2023-03-31T02:00:01.246Z,8.20
2023-03-31T02:01:01.195Z,5.30
2023-03-31T02:02:01.314Z,9.10
2023-03-31T02:03:01.215Z,8.20
2023-03-31T02:04:01.206Z,9.20
2023-03-31T02:05:01.205Z,6.80
2023-03-31T02:06:01.138Z,6.30
2023-03-31T02:07:01.126Z,8.40
2023-03-31T02:08:01.134Z,4.70
2023-03-31T02:09:01.084Z,6.70
2023-03-31T02:10:01.126Z,5.60
2023-03-31T02:11:01.132Z,5.80
2023-03-31T02:12:01.069Z,4.00
2023-03-31T02:13:01.049Z,6.00
2023-03-31T02:14:01.072Z,5.60
2023-03-31T02:15:01.051Z,3.60
2023-03-31T02:16:01.073Z,6.00
2023-03-31T02:17:00.994Z,5.10
2023-03-31T02:18:01.034Z,8.80
2023-03-31T02:19:00.994Z,7.20
2023-03-31T02:20:00.980Z,4.40
2023-03-31T02:21:00.976Z,6.70
2023-03-31T02:22:00.922Z,5.30
2023-03-31T02:23:00.899Z,6.30
2023-03-31T02:24:00.961Z,8.80
2023-03-31T02:25:00.902Z,5.70
2023-03-31T02:26:00.867Z,6.00
2023-03-31T02:27:00.889Z,9.80
2023-03-31T02:28:00.898Z,5.70
2023-03-31T02:29:00.831Z,8.30
2023-03-31T02:30:00.833Z,6.50
2023-03-31T02:31:00.813Z,7.10
2023-03-31T02:32:01.022Z,4.70
2023-03-31T02:33:00.851Z,6.90
2023-03-31T02:34:00.764Z,5.50
2023-03-31T02:35:00.759Z,6.00
2023-03-31T02:36:00.862Z,7.30
2023-03-31T02:37:00.730Z,6.30
2023-03-31T02:38:00.701Z,7.70
2023-03-31T02:39:00.736Z,5.30
2023-03-31T02:40:00.689Z,5.60
2023-03-31T02:41:00.684Z,7.50
2023-03-31T02:42:00.694Z,8.20
2023-03-31T02:43:00.699Z,5.00
2023-03-31T02:44:00.638Z,5.20
2023-03-31T02:45:00.631Z,6.90
2023-03-31T02:46:00.633Z,6.30
2023-03-31T02:47:00.603Z,9.00
2023-03-31T02:48:00.724Z,3.90
2023-03-31T02:49:00.578Z,5.30
2023-03-31T02:50:00.575Z,7.00
2023-03-31T02:51:00.593Z,6.70
2023-03-31T02:52:00.529Z,5.30
2023-03-31T02:53:00.507Z,7.20
2023-03-31T02:54:00.550Z,5.80
2023-03-31T02:55:00.484Z,8.50
2023-03-31T02:56:00.493Z,7.60
2023-03-31T02:57:00.586Z,4.20
2023-03-31T02:58:00.444Z,8.50
2023-03-31T02:59:00.435Z,5.80
2023-03-31T03:00:00.452Z,8.60
2023-03-31T03:01:00.455Z,6.30
2023-03-31T03:02:00.431Z,5.70
2023-03-31T03:03:00.469Z,7.10
2023-03-31T03:04:00.367Z,7.70
2023-03-31T03:05:00.352Z,8.00
2023-03-31T03:06:01.791Z,5.10
2023-03-31T03:07:00.363Z,7.90
2023-03-31T03:08:00.325Z,6.90
2023-03-31T03:09:00.307Z,6.20
2023-03-31T03:10:00.309Z,7.80
2023-03-31T03:11:00.291Z,7.80
2023-03-31T03:12:00.273Z,7.10
2023-03-31T03:13:00.272Z,7.20
2023-03-31T03:14:00.265Z,5.80
2023-03-31T03:15:00.239Z,7.60
2023-03-31T03:16:00.260Z,7.40
2023-03-31T03:17:00.299Z,6.90
2023-03-31T03:18:00.343Z,9.50
2023-03-31T03:19:00.219Z,6.40
2023-03-31T03:20:00.245Z,7.10
2023-03-31T03:21:00.157Z,7.80
2023-03-31T03:22:00.164Z,6.90
2023-03-31T03:23:00.122Z,5.50
2023-03-31T03:24:00.132Z,6.40
2023-03-31T03:25:00.161Z,8.20
2023-03-31T03:26:00.135Z,7.10
2023-03-31T03:27:00.113Z,9.70
2023-03-31T03:28:00.147Z,7.00
2023-03-31T03:29:00.040Z,8.60
2023-03-31T03:30:00.050Z,6.40
2023-03-31T03:31:00.053Z,7.90
2023-03-31T03:31:59.996Z,8.10
2023-03-31T03:33:00.019Z,6.10
2023-03-31T03:33:59.998Z,8.60
2023-03-31T03:34:59.996Z,9.40
2023-03-31T03:35:59.981Z,8.90
2023-03-31T03:37:00.056Z,7.70
2023-03-31T03:37:59.921Z,7.90
2023-03-31T03:38:59.920Z,9.90
2023-03-31T03:39:59.973Z,7.50
2023-03-31T03:40:59.893Z,5.60
2023-03-31T03:41:59.885Z,8.90
2023-03-31T03:42:59.897Z,9.40
2023-03-31T03:43:59.842Z,7.10
2023-03-31T03:44:59.840Z,6.50
2023-03-31T03:45:59.923Z,8.90
2023-03-31T03:46:59.827Z,7.90
2023-03-31T03:47:59.841Z,8.50
2023-03-31T03:48:59.819Z,8.70
2023-03-31T03:49:59.781Z,8.40
2023-03-31T03:50:59.758Z,6.90
2023-03-31T03:51:59.793Z,7.10
2023-03-31T03:52:59.738Z,8.70
2023-03-31T03:53:59.746Z,9.70
2023-03-31T03:54:59.741Z,7.30
2023-03-31T03:55:59.691Z,9.30
2023-03-31T03:57:02.502Z,10.70
2023-03-31T03:58:02.577Z,8.10
2023-03-31T03:58:59.645Z,9.60
2023-03-31T03:59:59.664Z,11.30
2023-03-31T04:00:59.649Z,9.60
2023-03-31T04:01:59.840Z,12.10
2023-03-31T04:02:59.686Z,11.10
2023-03-31T04:03:59.582Z,9.30
2023-03-31T04:04:59.662Z,11.70
2023-03-31T04:05:59.622Z,9.40
2023-03-31T04:06:59.549Z,9.90
2023-03-31T04:07:59.569Z,7.90
2023-03-31T04:08:59.540Z,10.40
2023-03-31T04:09:59.504Z,9.90
2023-03-31T04:10:59.637Z,8.80
2023-03-31T04:11:59.771Z,9.60
2023-03-31T04:12:59.633Z,10.50
2023-03-31T04:13:59.515Z,8.90
2023-03-31T04:14:59.503Z,8.10
2023-03-31T04:15:59.503Z,7.00
2023-03-31T04:16:59.481Z,8.20
2023-03-31T04:17:59.616Z,9.10
2023-03-31T04:18:59.410Z,5.80
2023-03-31T04:19:59.454Z,9.00
2023-03-31T04:20:59.749Z,11.30
2023-03-31T04:21:59.364Z,7.90
2023-03-31T04:22:59.469Z,11.70
2023-03-31T04:23:59.362Z,12.30
2023-03-31T04:25:00.177Z,7.70
2023-03-31T04:25:59.313Z,8.60
2023-03-31T04:26:59.297Z,7.40
2023-03-31T04:27:59.330Z,7.20
2023-03-31T04:28:59.249Z,12.00
2023-03-31T04:29:59.241Z,7.60
2023-03-31T04:30:59.266Z,7.60
2023-03-31T04:31:59.306Z,8.30
2023-03-31T04:32:59.251Z,10.40
2023-03-31T04:33:59.227Z,11.80
2023-03-31T04:34:59.178Z,10.00
2023-03-31T04:35:59.235Z,10.70
2023-03-31T04:36:59.187Z,13.40
2023-03-31T04:37:59.409Z,12.00
2023-03-31T04:38:59.139Z,8.60
2023-03-31T04:39:59.106Z,9.50
2023-03-31T04:40:59.109Z,10.20
2023-03-31T04:41:59.098Z,11.00
2023-03-31T04:42:59.074Z,11.50
2023-03-31T04:43:59.095Z,9.20
2023-03-31T04:44:59.043Z,11.80
2023-03-31T04:45:59.092Z,11.50
2023-03-31T04:46:59.078Z,10.30
2023-03-31T04:47:59.000Z,13.30
2023-03-31T04:48:59.000Z,10.40
2023-03-31T04:49:59.012Z,13.00
2023-03-31T04:50:58.965Z,11.30
2023-03-31T04:51:58.946Z,15.10
2023-03-31T04:52:58.940Z,8.80
2023-03-31T04:53:58.937Z,13.30
2023-03-31T04:54:58.854Z,10.60
2023-03-31T04:55:58.839Z,11.40
2023-03-31T04:56:58.903Z,12.80
2023-03-31T04:57:58.817Z,11.40
2023-03-31T04:58:58.830Z,11.80
2023-03-31T04:59:58.805Z,11.50
2023-03-31T05:00:58.942Z,11.00
2023-03-31T05:01:58.772Z,12.80
2023-03-31T05:02:58.824Z,13.20
2023-03-31T05:03:58.749Z,9.80
2023-03-31T05:04:58.751Z,12.00
2023-03-31T05:05:58.799Z,13.20
2023-03-31T05:06:58.747Z,10.70
2023-03-31T05:07:58.783Z,11.10
2023-03-31T05:08:58.726Z,14.50
2023-03-31T05:09:58.701Z,12.80
2023-03-31T05:10:58.665Z,14.70
2023-03-31T05:11:58.675Z,11.40
2023-03-31T05:12:58.625Z,11.10
2023-03-31T05:13:58.611Z,11.30
2023-03-31T05:14:58.799Z,11.80
2023-03-31T05:15:58.638Z,9.90
2023-03-31T05:16:58.617Z,12.10
2023-03-31T05:17:58.573Z,13.10
2023-03-31T05:18:58.801Z,14.50
2023-03-31T05:19:58.549Z,10.20
2023-03-31T05:20:58.523Z,11.80
2023-03-31T05:21:58.663Z,13.20
2023-03-31T05:22:58.520Z,13.30
2023-03-31T05:23:58.556Z,16.60
2023-03-31T05:24:58.478Z,12.50
2023-03-31T05:25:58.519Z,12.10
2023-03-31T05:26:58.468Z,10.20
2023-03-31T05:27:58.450Z,8.70
2023-03-31T05:28:58.533Z,12.50
2023-03-31T05:29:58.403Z,11.20
2023-03-31T05:30:58.459Z,15.00
2023-03-31T05:31:58.411Z,8.60
2023-03-31T05:32:58.406Z,12.90
2023-03-31T05:33:58.364Z,10.50
2023-03-31T05:34:58.347Z,13.60
2023-03-31T05:35:58.406Z,13.50
2023-03-31T05:36:58.304Z,10.50
2023-03-31T05:37:58.314Z,13.80
2023-03-31T05:38:58.303Z,11.40
2023-03-31T05:39:58.298Z,10.90
2023-03-31T05:40:58.309Z,12.60
2023-03-31T05:41:58.277Z,10.60
2023-03-31T05:42:58.271Z,12.10
2023-03-31T05:43:58.275Z,15.30
2023-03-31T05:44:58.219Z,10.20
2023-03-31T05:45:58.308Z,12.90
2023-03-31T05:46:58.186Z,11.90
2023-03-31T05:47:58.243Z,13.10
2023-03-31T05:48:59.702Z,12.10
2023-03-31T05:49:58.217Z,12.90
2023-03-31T05:50:58.735Z,14.00
2023-03-31T05:51:58.118Z,10.80
2023-03-31T05:52:58.232Z,9.00
2023-03-31T05:53:58.097Z,12.30
2023-03-31T05:54:58.075Z,12.70
2023-03-31T05:55:58.129Z,12.10
2023-03-31T05:56:58.109Z,11.80
2023-03-31T05:57:58.033Z,10.10
2023-03-31T05:58:58.154Z,12.10
2023-03-31T05:59:58.021Z,11.40
2023-03-31T06:00:58.018Z,11.40
2023-03-31T06:01:58.144Z,14.20
2023-03-31T06:02:58.147Z,12.40
2023-03-31T06:03:58.094Z,12.20
2023-03-31T06:04:57.981Z,9.50
2023-03-31T06:05:57.958Z,16.90
2023-03-31T06:06:57.930Z,12.70
2023-03-31T06:07:57.928Z,11.90
2023-03-31T06:08:57.969Z,12.00
2023-03-31T06:09:57.911Z,12.90
2023-03-31T06:10:57.910Z,11.70
2023-03-31T06:11:57.859Z,11.60
2023-03-31T06:12:57.840Z,12.50
2023-03-31T06:13:57.844Z,12.80
2023-03-31T06:14:57.849Z,15.50
2023-03-31T06:15:58.122Z,12.40
2023-03-31T06:16:58.188Z,12.20
2023-03-31T06:17:57.889Z,15.60
2023-03-31T06:18:57.779Z,11.90
2023-03-31T06:19:57.868Z,14.60
2023-03-31T06:20:57.738Z,13.60
2023-03-31T06:21:57.797Z,11.40
2023-03-31T06:22:57.727Z,12.60
2023-03-31T06:23:57.736Z,15.10
2023-03-31T06:24:57.760Z,14.20
2023-03-31T06:25:57.697Z,17.30
2023-03-31T06:26:57.663Z,16.80
2023-03-31T06:27:57.646Z,12.10
2023-03-31T06:28:57.702Z,11.40
2023-03-31T06:29:57.656Z,12.60
2023-03-31T06:30:57.623Z,16.00
2023-03-31T06:31:57.625Z,12.90
2023-03-31T06:32:57.768Z,12.70
2023-03-31T06:33:57.717Z,15.10
2023-03-31T06:34:57.592Z,14.80
2023-03-31T06:35:57.646Z,13.80
2023-03-31T06:36:57.525Z,12.20
2023-03-31T06:37:57.514Z,9.70
2023-03-31T06:38:57.528Z,13.30
2023-03-31T06:39:57.517Z,14.10
2023-03-31T06:40:57.491Z,11.00
2023-03-31T06:41:57.508Z,14.40
2023-03-31T06:42:57.520Z,15.20
2023-03-31T06:43:57.442Z,11.40
2023-03-31T06:44:57.433Z,15.10
2023-03-31T06:45:57.476Z,9.80
2023-03-31T06:46:57.411Z,13.50
2023-03-31T06:47:57.413Z,9.70
2023-03-31T06:48:57.372Z,12.20
2023-03-31T06:49:57.367Z,10.00
2023-03-31T06:50:57.346Z,13.40
2023-03-31T06:51:57.362Z,11.00
2023-03-31T06:52:57.361Z,14.20
2023-03-31T06:53:57.308Z,9.30
2023-03-31T06:54:57.329Z,12.80
2023-03-31T06:55:57.323Z,10.00
2023-03-31T06:56:57.338Z,14.30
2023-03-31T06:57:57.255Z,9.80
2023-03-31T06:58:57.289Z,10.30
2023-03-31T06:59:57.291Z,11.20
2023-03-31T07:00:57.390Z,11.80
2023-03-31T07:01:57.335Z,11.10
2023-03-31T07:02:57.245Z,8.70
2023-03-31T07:03:57.187Z,8.60
2023-03-31T07:04:57.172Z,10.00
2023-03-31T07:05:57.159Z,7.80
2023-03-31T07:06:57.195Z,11.80
2023-03-31T07:07:57.127Z,13.00
2023-03-31T07:08:57.106Z,11.10
2023-03-31T07:09:57.158Z,14.60
2023-03-31T07:10:57.156Z,11.60
2023-03-31T07:11:57.146Z,12.90
2023-03-31T07:12:57.080Z,13.50
2023-03-31T07:13:57.046Z,14.30
2023-03-31T07:14:57.053Z,11.70
2023-03-31T07:15:57.131Z,12.80
2023-03-31T07:16:57.009Z,15.20
2023-03-31T07:17:57.043Z,13.70
2023-03-31T07:18:56.984Z,12.70
2023-03-31T07:19:57.017Z,14.90
2023-03-31T07:20:56.964Z,14.20
2023-03-31T07:21:56.954Z,15.10
2023-03-31T07:22:56.936Z,14.90
2023-03-31T07:23:56.913Z,12.70
2023-03-31T07:24:56.888Z,14.80
2023-03-31T07:25:56.981Z,11.90
2023-03-31T07:26:56.886Z,13.20
2023-03-31T07:27:56.862Z,11.80
2023-03-31T07:28:56.874Z,14.10
2023-03-31T07:29:56.869Z,16.90
2023-03-31T07:30:56.807Z,12.30
2023-03-31T07:31:56.956Z,12.90
2023-03-31T07:32:56.828Z,12.20
2023-03-31T07:33:56.787Z,12.40
2023-03-31T07:34:56.765Z,11.70
2023-03-31T07:36:08.267Z,14.00
2023-03-31T07:36:56.828Z,15.60
2023-03-31T07:37:56.722Z,14.10
2023-03-31T07:38:56.744Z,13.90
2023-03-31T07:39:56.733Z,13.50
2023-03-31T07:41:07.640Z,12.10
2023-03-31T07:41:56.711Z,14.60
2023-03-31T07:42:56.716Z,13.90
2023-03-31T07:43:56.632Z,17.70
2023-03-31T07:44:56.657Z,10.30
2023-03-31T07:45:56.668Z,14.00
2023-03-31T07:46:56.900Z,11.20
2023-03-31T07:47:56.641Z,11.00
2023-03-31T07:48:56.587Z,11.30
2023-03-31T07:49:56.562Z,10.80
2023-03-31T07:50:56.559Z,11.30
2023-03-31T07:51:56.592Z,13.50
2023-03-31T07:52:56.621Z,15.20
2023-03-31T07:53:56.522Z,12.40
2023-03-31T07:54:56.529Z,10.60
2023-03-31T07:55:56.481Z,15.10
2023-03-31T07:56:56.525Z,12.20
2023-03-31T07:57:56.457Z,11.50
2023-03-31T07:58:57.829Z,11.30
2023-03-31T07:59:56.482Z,11.00
2023-03-31T08:00:56.458Z,11.60
2023-03-31T08:01:56.457Z,12.80
2023-03-31T08:02:56.555Z,14.90
2023-03-31T08:03:56.422Z,12.60
2023-03-31T08:04:56.422Z,11.20
2023-03-31T08:05:56.357Z,10.80
2023-03-31T08:06:56.346Z,11.60
2023-03-31T08:07:56.365Z,14.10
2023-03-31T08:08:56.311Z,12.60
2023-03-31T08:09:56.332Z,10.10
2023-03-31T08:10:56.265Z,15.60
2023-03-31T08:11:56.306Z,10.40
2023-03-31T08:12:56.267Z,17.40
2023-03-31T08:13:56.237Z,12.20
2023-03-31T08:14:56.238Z,12.30
2023-03-31T08:15:56.268Z,10.80
2023-03-31T08:16:56.227Z,10.80
2023-03-31T08:17:56.243Z,13.80
2023-03-31T08:18:56.176Z,12.50
2023-03-31T08:19:56.185Z,11.10
2023-03-31T08:20:56.163Z,14.20
2023-03-31T08:21:56.158Z,6.50
2023-03-31T08:22:56.121Z,7.70
2023-03-31T08:23:56.135Z,7.00
2023-03-31T08:24:56.105Z,7.80
2023-03-31T08:25:56.116Z,8.60
2023-03-31T08:26:56.075Z,7.00
2023-03-31T08:27:56.064Z,7.80
2023-03-31T08:28:56.062Z,6.30
2023-03-31T08:29:56.038Z,6.50
2023-03-31T08:30:56.112Z,9.00
2023-03-31T08:31:56.047Z,9.90
2023-03-31T08:32:56.075Z,6.90
2023-03-31T08:33:55.980Z,7.10
2023-03-31T08:34:55.987Z,5.50
2023-03-31T08:35:55.972Z,8.30
2023-03-31T08:36:56.136Z,7.00
2023-03-31T08:37:55.992Z,6.40
2023-03-31T08:38:55.898Z,8.10
2023-03-31T08:39:56.025Z,7.40
2023-03-31T08:40:55.982Z,6.30
2023-03-31T08:41:55.892Z,9.60
2023-03-31T08:42:55.866Z,8.70
2023-03-31T08:43:55.947Z,6.90
2023-03-31T08:44:55.874Z,11.30
2023-03-31T08:45:56.296Z,6.60
2023-03-31T08:46:55.807Z,7.50
2023-03-31T08:47:55.894Z,7.60
2023-03-31T08:48:55.779Z,9.50
2023-03-31T08:49:55.781Z,6.80
2023-03-31T08:50:55.771Z,8.80
2023-03-31T08:51:55.748Z,9.00
2023-03-31T08:52:55.760Z,11.50
2023-03-31T08:53:55.765Z,9.60
2023-03-31T08:54:55.685Z,15.40
2023-03-31T08:55:55.743Z,11.80
2023-03-31T08:56:55.709Z,12.10
2023-03-31T08:57:55.661Z,11.10
2023-03-31T08:58:55.708Z,11.60
2023-03-31T08:59:55.683Z,12.40
2023-03-31T09:00:55.703Z,11.20
2023-03-31T09:01:56.910Z,8.40
2023-03-31T09:02:55.763Z,8.80
2023-03-31T09:03:55.893Z,13.10
2023-03-31T09:04:55.566Z,12.00
2023-03-31T09:06:12.837Z,13.80
2023-03-31T09:06:55.541Z,10.30
2023-03-31T09:07:55.564Z,11.60
2023-03-31T09:08:55.532Z,15.60
2023-03-31T09:09:55.501Z,13.70
2023-03-31T09:10:55.521Z,10.80
2023-03-31T09:11:55.494Z,12.00
2023-03-31T09:12:55.448Z,15.80
2023-03-31T09:13:55.472Z,12.60
2023-03-31T09:14:55.433Z,11.00
2023-03-31T09:15:55.444Z,8.20
2023-03-31T09:16:55.452Z,13.00
2023-03-31T09:17:55.434Z,12.70
2023-03-31T09:18:55.446Z,10.40
2023-03-31T09:19:55.361Z,18.80
2023-03-31T09:20:55.374Z,13.40
2023-03-31T09:21:55.341Z,17.90
2023-03-31T09:22:55.366Z,14.00
2023-03-31T09:23:55.308Z,12.60
2023-03-31T09:24:55.326Z,11.00
2023-03-31T09:25:55.295Z,13.50
2023-03-31T09:26:55.279Z,17.10
2023-03-31T09:27:55.275Z,12.20
2023-03-31T09:28:55.243Z,10.80
2023-03-31T09:29:55.265Z,15.90
2023-03-31T09:30:55.221Z,12.20
2023-03-31T09:31:55.227Z,13.30
2023-03-31T09:32:55.269Z,10.80
2023-03-31T09:33:55.173Z,14.80
2023-03-31T09:34:55.162Z,12.20
2023-03-31T09:35:55.185Z,11.30
2023-03-31T09:36:55.182Z,12.40
2023-03-31T09:37:55.159Z,16.10
2023-03-31T09:38:55.232Z,13.60
2023-03-31T09:39:55.092Z,11.80
2023-03-31T09:40:55.082Z,17.30
2023-03-31T09:41:55.123Z,16.80
2023-03-31T09:42:55.073Z,14.80
2023-03-31T09:43:55.063Z,11.10
2023-03-31T09:44:55.055Z,14.40
2023-03-31T09:46:09.570Z,14.40
2023-03-31T09:46:55.114Z,9.50
2023-03-31T09:49:06.540Z,11.30
2023-03-31T09:50:07.532Z,15.00
2023-03-31T09:51:07.563Z,13.10
2023-03-31T09:52:07.506Z,15.80
2023-03-31T09:53:07.502Z,13.80
2023-03-31T09:54:07.496Z,16.00
2023-03-31T09:55:07.468Z,11.80
2023-03-31T09:56:07.708Z,12.90
2023-03-31T09:57:07.465Z,12.00
2023-03-31T09:58:07.420Z,14.30
2023-03-31T09:59:07.517Z,15.80
2023-03-31T10:00:07.411Z,13.10
2023-03-31T10:01:07.686Z,11.00
2023-03-31T10:02:07.426Z,9.30
2023-03-31T10:03:07.847Z,13.60
2023-03-31T10:04:07.359Z,11.50
2023-03-31T10:05:07.529Z,7.70
2023-03-31T10:06:07.317Z,8.60
2023-03-31T10:07:07.371Z,11.20
2023-03-31T10:08:07.354Z,10.40
2023-03-31T10:09:07.353Z,8.90
2023-03-31T10:10:07.264Z,13.40
2023-03-31T10:11:07.407Z,9.20
2023-03-31T10:12:07.248Z,14.00
2023-03-31T10:13:07.250Z,13.30
2023-03-31T10:14:07.193Z,12.40
2023-03-31T10:15:07.171Z,12.40
2023-03-31T10:16:07.334Z,10.10
2023-03-31T10:17:07.249Z,9.90
2023-03-31T10:18:07.199Z,7.40
2023-03-31T10:19:07.296Z,9.60
2023-03-31T10:20:07.177Z,10.70
2023-03-31T10:21:07.409Z,8.20
2023-03-31T10:22:07.119Z,11.90
2023-03-31T10:23:07.154Z,13.70
2023-03-31T10:24:07.126Z,13.20
2023-03-31T10:25:07.074Z,9.10
2023-03-31T10:26:07.165Z,7.60
2023-03-31T10:27:07.054Z,12.40
2023-03-31T10:28:07.083Z,10.50
2023-03-31T10:29:07.023Z,8.40
2023-03-31T10:30:06.971Z,11.10
2023-03-31T10:31:07.200Z,13.00
2023-03-31T10:32:06.994Z,10.90
2023-03-31T10:33:19.209Z,8.40
2023-03-31T10:34:06.950Z,7.30
2023-03-31T10:35:06.954Z,10.10
2023-03-31T10:36:06.975Z,8.90
2023-03-31T10:37:06.919Z,11.20
2023-03-31T10:38:06.925Z,7.00
2023-03-31T10:39:06.874Z,10.80
2023-03-31T10:40:06.869Z,9.40
2023-03-31T10:41:07.080Z,8.60
2023-03-31T10:42:06.870Z,7.00
2023-03-31T10:43:06.835Z,9.00
2023-03-31T10:44:06.833Z,9.60
2023-03-31T10:45:06.794Z,11.00
2023-03-31T10:46:06.765Z,11.20
2023-03-31T10:47:06.789Z,7.90
2023-03-31T10:48:06.836Z,7.90
2023-03-31T10:49:06.769Z,9.30
2023-03-31T10:50:06.707Z,7.60
2023-03-31T10:51:06.835Z,8.20
2023-03-31T10:52:06.691Z,10.40
2023-03-31T10:53:06.716Z,6.50
2023-03-31T10:54:06.724Z,7.40
2023-03-31T10:55:06.652Z,6.90
2023-03-31T10:56:06.663Z,10.30
2023-03-31T10:57:06.636Z,7.50
2023-03-31T10:58:06.633Z,6.60
2023-03-31T10:59:06.719Z,11.10
2023-03-31T11:00:06.582Z,6.20
2023-03-31T11:01:06.794Z,5.00
2023-03-31T11:02:06.616Z,6.00
2023-03-31T11:03:06.660Z,5.30
2023-03-31T11:04:06.577Z,5.70
2023-03-31T11:05:06.574Z,6.20
2023-03-31T11:06:06.490Z,9.20
2023-03-31T11:07:06.490Z,6.90
2023-03-31T11:08:06.543Z,6.40
2023-03-31T11:09:06.504Z,8.50
2023-03-31T11:10:06.452Z,7.20
2023-03-31T11:11:06.765Z,9.00
2023-03-31T11:12:06.551Z,6.50
2023-03-31T11:13:06.437Z,4.00
2023-03-31T11:14:06.455Z,8.60
2023-03-31T11:15:06.408Z,7.10
2023-03-31T11:16:06.448Z,10.10
2023-03-31T11:17:06.406Z,9.20
2023-03-31T11:18:06.368Z,5.20
2023-03-31T11:19:06.353Z,5.40
2023-03-31T11:20:06.307Z,11.20
2023-03-31T11:21:06.648Z,8.40
2023-03-31T11:22:06.301Z,5.90
2023-03-31T11:23:06.285Z,5.40
2023-03-31T11:24:06.266Z,7.10
2023-03-31T11:25:06.339Z,6.70
2023-03-31T11:26:06.221Z,6.70
2023-03-31T11:27:06.226Z,7.30
2023-03-31T11:28:06.206Z,6.80
2023-03-31T11:29:06.210Z,6.40
2023-03-31T11:30:06.184Z,8.00
2023-03-31T11:31:06.270Z,6.50
2023-03-31T11:32:06.237Z,5.50
2023-03-31T11:33:06.159Z,3.60
2023-03-31T11:34:06.212Z,4.50
2023-03-31T11:35:06.148Z,5.00
2023-03-31T11:36:06.199Z,6.20
2023-03-31T11:37:06.204Z,6.10
2023-03-31T11:38:06.091Z,4.60
2023-03-31T11:39:06.059Z,4.50
2023-03-31T11:40:06.107Z,6.00
2023-03-31T11:41:06.195Z,6.20
2023-03-31T11:42:06.223Z,4.60
2023-03-31T11:43:06.002Z,7.40
2023-03-31T11:44:06.046Z,6.20
2023-03-31T11:45:06.041Z,6.80
2023-03-31T11:46:06.232Z,6.70
2023-03-31T11:47:06.033Z,4.70
2023-03-31T11:48:07.507Z,6.90
2023-03-31T11:49:05.948Z,6.60
2023-03-31T11:50:05.938Z,5.20
2023-03-31T11:51:05.924Z,5.70
2023-03-31T11:52:06.018Z,4.60
2023-03-31T11:53:05.903Z,5.60
2023-03-31T11:54:05.865Z,7.40
2023-03-31T11:55:05.996Z,7.10
2023-03-31T11:56:05.946Z,7.80
2023-03-31T11:57:05.859Z,7.90
2023-03-31T11:58:05.810Z,6.10
2023-03-31T11:59:05.908Z,8.80
2023-03-31T12:00:05.798Z,8.40
2023-03-31T12:01:05.793Z,8.10
2023-03-31T12:02:05.768Z,9.20
2023-03-31T12:03:05.846Z,4.00
2023-03-31T12:04:05.821Z,5.30
2023-03-31T12:05:05.777Z,6.60
2023-03-31T12:06:05.949Z,5.50
2023-03-31T12:07:05.684Z,6.90
2023-03-31T12:08:05.891Z,8.20
2023-03-31T12:09:05.694Z,8.40
2023-03-31T12:10:05.721Z,6.40
2023-03-31T12:11:05.628Z,6.20
2023-03-31T12:12:05.654Z,9.00
2023-03-31T12:13:05.645Z,5.30
2023-03-31T12:14:05.595Z,4.50
2023-03-31T12:15:05.628Z,6.20
2023-03-31T12:16:05.709Z,6.40
2023-03-31T12:17:05.569Z,6.60
2023-03-31T12:18:05.575Z,7.70
2023-03-31T12:19:05.523Z,5.50
2023-03-31T12:20:05.535Z,9.00
2023-03-31T12:21:05.544Z,8.40
2023-03-31T12:22:05.496Z,8.00
2023-03-31T12:23:05.489Z,6.50
2023-03-31T12:24:07.183Z,6.10
2023-03-31T12:25:05.544Z,8.30
2023-03-31T12:26:05.617Z,8.10
2023-03-31T12:27:05.497Z,9.90
2023-03-31T12:28:05.420Z,7.40
2023-03-31T12:29:05.394Z,10.90
2023-03-31T12:30:05.410Z,8.10
2023-03-31T12:31:05.420Z,9.70
2023-03-31T12:32:05.346Z,9.40
2023-03-31T12:33:05.397Z,10.70
2023-03-31T12:34:05.429Z,9.80
2023-03-31T12:35:05.329Z,9.80
2023-03-31T12:36:05.527Z,9.30
2023-03-31T12:37:05.306Z,9.10
2023-03-31T12:38:05.330Z,12.00
2023-03-31T12:39:05.265Z,10.00
2023-03-31T12:40:05.280Z,8.70
2023-03-31T12:41:05.231Z,7.80
2023-03-31T12:42:05.241Z,10.50
2023-03-31T12:43:05.201Z,8.20
2023-03-31T12:44:05.268Z,10.80
2023-03-31T12:45:05.199Z,10.80
2023-03-31T12:46:05.332Z,6.80
2023-03-31T12:47:05.244Z,12.40
2023-03-31T12:48:05.159Z,8.20
2023-03-31T12:49:05.150Z,12.70
2023-03-31T12:50:05.128Z,7.60
2023-03-31T12:51:05.301Z,8.40
2023-03-31T12:52:05.088Z,8.50
2023-03-31T12:53:05.077Z,7.70
2023-03-31T12:54:05.065Z,8.60
2023-03-31T12:55:05.128Z,6.10
2023-03-31T12:56:05.233Z,8.40
2023-03-31T12:57:05.052Z,10.20
2023-03-31T12:58:05.005Z,6.40
2023-03-31T12:59:05.106Z,6.90
2023-03-31T13:00:05.013Z,7.10
2023-03-31T13:01:05.327Z,9.10
2023-03-31T13:02:05.092Z,6.30
2023-03-31T13:03:04.983Z,7.60
2023-03-31T13:04:05.033Z,7.40
2023-03-31T13:05:04.937Z,7.10
2023-03-31T13:06:04.925Z,6.30
2023-03-31T13:07:09.521Z,6.60
2023-03-31T13:08:04.871Z,5.00